Archer — E5U2902 — position and weather

sailwx.info

Track history (hours):
 
Tides and Currents Weather Stations Pressure Air Temp Water Temp Dewpoint Dewpoint Depression Visibility Wind Speed Wind Dir Waves Ship Positions

Archer

Last reported at 2017-Dec-16 15:03 UTC. Time now 2017-Dec-17 06:38 UTC.
Position N 41°01' E 028°60'.

Length 101 m; draft 7 m.

Type: Cargo ship. MMSI: 518955000.

Date/timePositionNaut miles runAvg speedWind from/ knotsBaromVisibWave heightAir tempDewpointWater temp
2017-Dec-16 15:03N 41°01' E 028°60'112.1
2017-Dec-16 15:00N 41°01' E 028°60'4 7.3
2017-Dec-16 14:30N 40°57' E 028°59'  
2017-Dec-13 23:31N 38°50' E 025°13'012.9
2017-Dec-13 23:30N 38°50' E 025°13'58 7.7
2017-Dec-13 16:02N 37°58' E 024°39'012.1
2017-Dec-13 16:00N 37°58' E 024°39'612.2
2017-Dec-13 15:30N 37°54' E 024°34'612.3
2017-Dec-13 15:00N 37°50' E 024°28'612.5
2017-Dec-13 14:31N 37°45' E 024°22'712.5
2017-Dec-13 13:56N 37°40' E 024°16'612.9
2017-Dec-13 13:29N 37°35' E 024°12'612.7
2017-Dec-13 13:01N 37°30' E 024°08'612.6
2017-Dec-13 12:30N 37°25' E 024°03'612.4
2017-Dec-13 12:00N 37°20' E 023°59'612.1
2017-Dec-13 11:30N 37°15' E 023°55'611.8
2017-Dec-13 11:00N 37°10' E 023°51'612.1
2017-Dec-13 10:30N 37°05' E 023°47'612.2
2017-Dec-13 10:01N 36°60' E 023°43'712.2
2017-Dec-13 09:28N 36°54' E 023°38'2112.4
2017-Dec-13 07:47N 36°38' E 023°22'2911.4
2017-Dec-13 05:17N 36°24' E 022°52'412.8
2017-Dec-13 05:00N 36°23' E 022°47'712.7
2017-Dec-13 04:27N 36°22' E 022°39'612.4
2017-Dec-13 03:56N 36°22' E 022°31'512.1
2017-Dec-13 03:30N 36°22' E 022°24'  
2017-Dec-08 04:47N 38°21' E 022°40'1 3.8
2017-Dec-08 04:30N 38°20' E 022°39'4 7.4
2017-Dec-08 04:00N 38°17' E 022°37'  
Track history (hours):
 
Tides and Currents Weather Stations Pressure Air Temp Water Temp Dewpoint Dewpoint Depression Visibility Wind Speed Wind Dir Waves Ship Positions

Archer

Last reported at 2017-Dec-16 15:03 UTC. Time now 2017-Dec-17 06:38 UTC.
Position N 41°01' E 028°60'.

Length 101 m; draft 7 m.

Type: Cargo ship. MMSI: 518955000.

Date/timePositionNaut miles runAvg speedWind from/ knotsBaromVisibWave heightAir tempDewpointWater temp
2017-Dec-16 15:03N 41°01' E 028°60'112.1
2017-Dec-16 15:00N 41°01' E 028°60'4 7.3
2017-Dec-16 14:30N 40°57' E 028°59'  
2017-Dec-13 23:31N 38°50' E 025°13'012.9
2017-Dec-13 23:30N 38°50' E 025°13'58 7.7
2017-Dec-13 16:02N 37°58' E 024°39'012.1
2017-Dec-13 16:00N 37°58' E 024°39'612.2
2017-Dec-13 15:30N 37°54' E 024°34'612.3
2017-Dec-13 15:00N 37°50' E 024°28'612.5
2017-Dec-13 14:31N 37°45' E 024°22'712.5
2017-Dec-13 13:56N 37°40' E 024°16'612.9
2017-Dec-13 13:29N 37°35' E 024°12'612.7
2017-Dec-13 13:01N 37°30' E 024°08'612.6
2017-Dec-13 12:30N 37°25' E 024°03'612.4
2017-Dec-13 12:00N 37°20' E 023°59'612.1
2017-Dec-13 11:30N 37°15' E 023°55'611.8
2017-Dec-13 11:00N 37°10' E 023°51'612.1
2017-Dec-13 10:30N 37°05' E 023°47'612.2
2017-Dec-13 10:01N 36°60' E 023°43'712.2
2017-Dec-13 09:28N 36°54' E 023°38'2112.4
2017-Dec-13 07:47N 36°38' E 023°22'2911.4
2017-Dec-13 05:17N 36°24' E 022°52'412.8
2017-Dec-13 05:00N 36°23' E 022°47'712.7
2017-Dec-13 04:27N 36°22' E 022°39'612.4
2017-Dec-13 03:56N 36°22' E 022°31'512.1
2017-Dec-13 03:30N 36°22' E 022°24'  
2017-Dec-08 04:47N 38°21' E 022°40'1 3.8
2017-Dec-08 04:30N 38°20' E 022°39'4 7.4
2017-Dec-08 04:00N 38°17' E 022°37'  

Dump ship's entire track history